Time;durP1;ratioP1;P1;durP2;ratioP2;P2;SDS_P1;SDS_P2;PMS_P1;PMS_P2;Temp;Humidity;BMP_temperature;BMP_pressure;BME280_temperature;BME280_humidity;BME280_pressure;Samples;Min_cycle;Max_cycle;Signal;HPM_P1;HPM_P2
2023/03/08 00:00:06;;;;;;;;;23.00;23.00;;;;;8.77;100.00;99560.09;5079704;27;46383;-76
2023/03/08 00:02:32;;;;;;;;;21.67;21.67;;;;;8.83;100.00;99556.69;5078179;28;45810;-77
2023/03/08 00:04:57;;;;;;;;;22.33;21.00;;;;;8.83;100.00;99551.38;5079992;28;45357;-76
2023/03/08 00:07:23;;;;;;;;;22.67;21.00;;;;;8.83;100.00;99543.44;5079383;28;45486;-77
2023/03/08 00:09:48;;;;;;;;;28.00;24.67;;;;;8.81;100.00;99535.66;5079503;27;45337;-77
2023/03/08 00:12:14;;;;;;;;;22.33;20.67;;;;;8.81;100.00;99534.84;5074997;27;45379;-76
2023/03/08 00:14:39;;;;;;;;;29.00;23.33;;;;;8.80;100.00;99525.25;5069566;28;45335;-76
2023/03/08 00:17:05;;;;;;;;;20.00;18.67;;;;;8.85;100.00;99536.09;5079557;28;45482;-77
2023/03/08 00:19:30;;;;;;;;;25.00;24.33;;;;;8.72;100.00;99510.31;5079790;27;46111;-76
2023/03/08 00:21:56;;;;;;;;;29.67;23.33;;;;;8.79;100.00;99524.44;5079209;28;45507;-77
2023/03/08 00:24:22;;;;;;;;;27.67;25.00;;;;;8.76;100.00;99524.81;5078482;28;45353;-77
2023/03/08 00:26:47;;;;;;;;;24.67;24.33;;;;;8.67;100.00;99518.84;5078925;28;45402;-76
2023/03/08 00:29:13;;;;;;;;;23.00;21.67;;;;;8.66;100.00;99513.75;5079116;28;58786;-77
2023/03/08 00:31:38;;;;;;;;;20.00;20.00;;;;;8.66;100.00;99506.63;5065821;27;45204;-77
2023/03/08 00:34:03;;;;;;;;;23.33;23.00;;;;;8.68;100.00;99501.94;5079645;27;45298;-77
2023/03/08 00:36:29;;;;;;;;;23.00;19.67;;;;;8.63;100.00;99493.75;5079316;27;45421;-76
2023/03/08 00:38:55;;;;;;;;;20.67;19.00;;;;;8.62;100.00;99494.75;5079321;28;46036;-77
2023/03/08 00:41:20;;;;;;;;;22.67;22.67;;;;;8.59;100.00;99482.72;5079009;28;45255;-77
2023/03/08 00:43:46;;;;;;;;;23.75;21.25;;;;;8.64;100.00;99486.59;5079437;27;45767;-77
2023/03/08 00:46:12;;;;;;;;;22.67;20.67;;;;;8.59;100.00;99485.38;5079127;28;45505;-76
2023/03/08 00:48:37;;;;;;;;;30.00;28.00;;;;;8.63;100.00;99480.50;5079169;27;46345;-76
2023/03/08 00:51:03;;;;;;;;;25.25;22.25;;;;;8.64;100.00;99481.31;5077718;27;45287;-77
2023/03/08 00:53:28;;;;;;;;;22.00;22.00;;;;;8.54;100.00;99453.34;5079392;28;45426;-77
2023/03/08 00:55:58;;;;;;;;;19.00;18.33;;;;;8.63;100.00;99461.16;5076914;27;45219;-77
2023/03/08 00:58:26;;;;;;;;;25.75;24.25;;;;;8.57;100.00;99447.69;5057696;28;47088;-77
2023/03/08 01:00:52;;;;;;;;;23.00;21.33;;;;;8.56;100.00;99451.31;5074172;28;45277;-77
2023/03/08 01:03:19;;;;;;;;;18.25;17.75;;;;;8.51;100.00;99429.88;5079268;27;45207;-77
2023/03/08 01:05:46;;;;;;;;;22.00;22.00;;;;;8.54;100.00;99432.16;5079057;27;45493;-77
2023/03/08 01:08:14;;;;;;;;;25.75;22.00;;;;;8.49;100.00;99420.47;5082680;27;46183;-77
2023/03/08 01:10:39;;;;;;;;;26.33;22.33;;;;;8.46;100.00;99409.25;5082183;27;45342;-76
2023/03/08 01:13:07;;;;;;;;;25.33;22.33;;;;;8.39;100.00;99384.56;5082876;28;45227;-77
2023/03/08 01:15:37;;;;;;;;;21.00;19.00;;;;;8.46;100.00;99396.03;5081155;28;46121;-76
2023/03/08 01:18:06;;;;;;;;;23.00;18.00;;;;;8.45;100.00;99377.69;5082522;28;45342;-77
2023/03/08 01:20:32;;;;;;;;;25.25;20.75;;;;;8.38;100.00;99367.03;5081958;27;45288;-77
2023/03/08 01:22:58;;;;;;;;;20.33;18.00;;;;;8.38;100.00;99359.09;5082483;27;45433;-77
2023/03/08 01:25:23;;;;;;;;;16.67;16.33;;;;;8.37;100.00;99343.41;5080839;27;46174;-76
2023/03/08 01:27:49;;;;;;;;;18.67;17.67;;;;;8.29;100.00;99349.69;5082243;27;45605;-77
2023/03/08 01:30:15;;;;;;;;;23.33;21.00;;;;;8.32;100.00;99355.41;5082184;27;46706;-77
2023/03/08 01:32:40;;;;;;;;;20.33;18.67;;;;;8.28;100.00;99337.44;5082297;27;45377;-77
2023/03/08 01:35:06;;;;;;;;;20.33;18.00;;;;;8.25;100.00;99324.59;5080831;28;45492;-76
2023/03/08 01:37:31;;;;;;;;;19.33;19.33;;;;;8.30;100.00;99327.47;5082167;28;46292;-77
2023/03/08 01:39:57;;;;;;;;;19.67;18.00;;;;;8.25;100.00;99311.34;5081989;27;45356;-76
2023/03/08 01:42:22;;;;;;;;;22.00;19.33;;;;;8.32;100.00;99320.19;5081955;27;45312;-77
2023/03/08 01:44:49;;;;;;;;;18.33;16.33;;;;;8.28;100.00;99305.66;5081975;27;45357;-77
2023/03/08 01:47:22;;;;;;;;;20.00;16.00;;;;;8.30;100.00;99314.25;5080696;28;48338;-77
2023/03/08 01:49:48;;;;;;;;;23.00;20.33;;;;;8.27;100.00;99307.53;5080545;28;45476;-77
2023/03/08 01:52:22;;;;;;;;;21.00;19.67;;;;;8.33;100.00;99295.34;5082180;27;45240;-77
2023/03/08 01:54:54;;;;;;;;;23.00;22.00;;;;;8.28;100.00;99282.69;5081827;27;45285;-77
2023/03/08 01:57:37;;;;;;;;;21.00;21.00;;;;;8.30;100.00;99279.84;5081024;27;46326;-76
2023/03/08 02:00:09;;;;;;;;;20.33;19.67;;;;;8.35;100.00;99280.06;5081751;27;45284;-77
2023/03/08 02:02:40;;;;;;;;;20.00;18.00;;;;;8.32;100.00;99269.88;5081862;28;45290;-77
2023/03/08 02:05:07;;;;;;;;;23.00;22.75;;;;;8.30;100.00;99253.38;5080377;28;46476;-77
2023/03/08 02:07:32;;;;;;;;;23.67;23.33;;;;;8.33;100.00;99252.97;5080197;28;47510;-76
2023/03/08 02:09:57;;;;;;;;;18.33;17.67;;;;;8.31;100.00;99236.47;5081610;28;45231;-77
2023/03/08 02:12:23;;;;;;;;;24.67;22.67;;;;;8.33;100.00;99248.47;5081158;27;45271;-77
2023/03/08 02:14:49;;;;;;;;;23.50;22.25;;;;;8.33;100.00;99251.13;5081585;28;45607;-77
2023/03/08 02:17:14;;;;;;;;;23.75;23.75;;;;;8.37;100.00;99246.28;5079571;28;47511;-77
2023/03/08 02:19:54;;;;;;;;;27.50;26.00;;;;;8.42;100.00;99245.69;5081222;27;45303;-77
2023/03/08 02:22:20;;;;;;;;;21.75;21.25;;;;;8.42;100.00;99233.28;5080126;28;45402;-77
2023/03/08 02:24:45;;;;;;;;;24.67;19.67;;;;;8.36;100.00;99214.69;5081278;27;45191;-77
2023/03/08 02:27:17;;;;;;;;;28.00;22.67;;;;;8.40;100.00;99211.47;5081022;27;45263;-76
2023/03/08 02:29:42;;;;;;;;;24.75;24.75;;;;;8.36;100.00;99206.75;5079680;28;45272;-77
2023/03/08 02:32:08;;;;;;;;;27.25;24.50;;;;;8.38;100.00;99205.53;5080064;28;45137;-76
2023/03/08 02:34:34;;;;;;;;;29.00;24.00;;;;;8.37;100.00;99198.63;5081408;27;45322;-76
2023/03/08 02:36:59;;;;;;;;;16.00;15.75;;;;;8.36;100.00;99190.88;5079800;27;48006;-76
2023/03/08 02:39:24;;;;;;;;;12.50;8.00;;;;;8.34;100.00;99176.00;5081082;28;47986;-77
2023/03/08 02:41:49;;;;;;;;;24.75;22.50;;;;;8.32;100.00;99167.44;5079514;28;45249;-77
2023/03/08 02:44:15;;;;;;;;;26.25;24.25;;;;;8.38;100.00;99173.75;5081306;28;45487;-76
2023/03/08 02:46:43;;;;;;;;;15.25;13.50;;;;;8.33;100.00;99144.44;5080732;27;45271;-77
2023/03/08 02:49:09;;;;;;;;;22.25;21.25;;;;;8.29;100.00;99136.06;5081124;27;45333;-77
2023/03/08 02:51:34;;;;;;;;;21.75;20.75;;;;;8.27;100.00;99132.81;5079266;27;45437;-77
2023/03/08 02:53:59;;;;;;;;;28.50;25.50;;;;;8.33;100.00;99141.78;5080559;28;56184;-76
2023/03/08 02:56:25;;;;;;;;;24.00;23.00;;;;;8.31;100.00;99141.16;5080645;27;45227;-77
2023/03/08 02:58:50;;;;;;;;;23.25;22.50;;;;;8.26;100.00;99125.06;5080708;28;45385;-77
2023/03/08 03:01:15;;;;;;;;;27.25;25.50;;;;;8.29;100.00;99136.06;5080660;27;45282;-77
2023/03/08 03:03:41;;;;;;;;;27.25;21.00;;;;;8.18;100.00;99113.66;5080908;28;45310;-74
2023/03/08 03:06:18;;;;;;;;;27.75;24.75;;;;;8.18;100.00;99115.47;5080533;27;46409;-77
2023/03/08 03:08:43;;;;;;;;;25.25;24.00;;;;;8.13;100.00;99113.41;5080619;28;45219;-76
2023/03/08 03:11:14;;;;;;;;;24.00;23.00;;;;;8.17;100.00;99097.97;5079325;28;45170;-77
2023/03/08 03:13:40;;;;;;;;;23.25;20.50;;;;;8.19;100.00;99099.41;5079348;28;46669;-77
2023/03/08 03:16:11;;;;;;;;;24.67;24.67;;;;;8.23;100.00;99083.13;5080630;27;46542;-77
2023/03/08 03:18:36;;;;;;;;;22.00;19.33;;;;;8.18;100.00;99059.91;5069334;27;45323;-77
2023/03/08 03:21:07;;;;;;;;;22.00;21.00;;;;;8.26;100.00;99050.97;5083932;27;45780;-78
2023/03/08 03:23:33;;;;;;;;;24.67;22.33;;;;;8.25;100.00;99031.59;5076637;28;45292;-77
2023/03/08 03:26:24;;;;;;;;;24.00;21.67;;;;;8.28;100.00;99031.22;5080241;28;46540;-77
2023/03/08 03:28:53;;;;;;;;;19.33;17.00;;;;;8.24;100.00;99006.16;5078169;27;45326;-77
2023/03/08 03:31:21;;;;;;;;;22.00;21.00;;;;;8.27;100.00;98995.19;5078724;28;45285;-77
2023/03/08 03:33:46;;;;;;;;;21.00;19.33;;;;;8.36;100.00;99003.75;5078939;28;45335;-77
2023/03/08 03:36:15;;;;;;;;;21.33;18.33;;;;;8.36;100.00;98987.03;5079933;27;46220;-77
2023/03/08 03:38:41;;;;;;;;;21.67;19.67;;;;;8.36;100.00;98987.03;5080506;28;45395;-77
2023/03/08 03:41:10;;;;;;;;;21.00;18.67;;;;;8.35;100.00;98988.84;5080264;27;45248;-77
2023/03/08 03:43:36;;;;;;;;;22.00;17.00;;;;;8.42;100.00;98970.34;5080398;27;45502;-77
2023/03/08 03:46:05;;;;;;;;;18.00;15.00;;;;;8.41;100.00;98969.50;5080157;27;46364;-77
2023/03/08 03:48:31;;;;;;;;;19.00;17.33;;;;;8.44;100.00;98953.22;5080267;28;45405;-77
2023/03/08 03:51:05;;;;;;;;;15.00;14.67;;;;;8.45;100.00;98954.06;5079899;27;45682;-77
2023/03/08 03:53:32;;;;;;;;;16.00;14.67;;;;;8.39;100.00;98939.81;5080231;27;45240;-77
2023/03/08 03:56:19;;;;;;;;;15.00;13.00;;;;;8.44;100.00;98937.34;5079465;27;45296;-77
2023/03/08 03:58:45;;;;;;;;;15.33;15.00;;;;;8.38;100.00;98918.81;5078613;28;45400;-77
2023/03/08 04:01:14;;;;;;;;;13.00;11.33;;;;;8.40;100.00;98901.72;5080432;27;45260;-77
2023/03/08 04:03:39;;;;;;;;;16.00;16.00;;;;;8.42;100.00;98896.22;5078454;27;47052;-77
2023/03/08 04:06:20;;;;;;;;;13.00;13.00;;;;;8.51;100.00;98899.44;5078394;28;46412;-77
2023/03/08 04:08:46;;;;;;;;;14.33;13.33;;;;;9.22;100.00;98884.59;5078521;28;45169;-77
2023/03/08 04:11:14;;;;;;;;;19.00;15.00;;;;;9.27;100.00;98881.31;5079724;27;45448;-75
2023/03/08 04:13:40;;;;;;;;;15.00;12.00;;;;;8.63;100.00;98887.25;5079467;28;45454;-76
2023/03/08 04:16:13;;;;;;;;;14.67;13.00;;;;;8.54;100.00;98876.06;5079632;27;45382;-77
2023/03/08 04:18:38;;;;;;;;;12.00;11.33;;;;;9.11;100.00;98874.66;5079703;27;45357;-77
2023/03/08 04:21:04;;;;;;;;;13.33;12.33;;;;;8.60;100.00;98861.19;5079764;28;45380;-77
2023/03/08 04:23:29;;;;;;;;;13.33;13.33;;;;;8.49;100.00;98854.66;5079525;27;45363;-77
2023/03/08 04:25:54;;;;;;;;;14.67;13.00;;;;;8.45;100.00;98850.78;5077909;28;47540;-77
2023/03/08 04:28:20;;;;;;;;;11.67;11.33;;;;;9.03;100.00;98843.91;5079137;27;51430;-76
2023/03/08 04:30:45;;;;;;;;;14.67;13.33;;;;;8.51;100.00;98842.03;5078986;27;52144;-77
2023/03/08 04:33:13;;;;;;;;;9.67;9.67;;;;;8.37;100.00;98828.00;5079220;28;48272;-77
2023/03/08 04:35:38;;;;;;;;;14.33;12.00;;;;;8.54;100.00;98817.00;5079509;28;45274;-78
2023/03/08 04:38:04;;;;;;;;;14.00;12.00;;;;;8.42;100.00;98822.09;5078628;28;52556;-77
2023/03/08 04:40:29;;;;;;;;;10.67;10.67;;;;;8.38;100.00;98818.22;5079157;27;45349;-77
2023/03/08 04:42:55;;;;;;;;;13.67;11.67;;;;;8.50;100.00;98815.75;5079136;28;45281;-78
2023/03/08 04:45:20;;;;;;;;;12.00;10.00;;;;;8.45;100.00;98819.03;5079584;27;46044;-78
2023/03/08 04:47:45;;;;;;;;;12.00;9.67;;;;;8.44;100.00;98799.66;5078029;28;46182;-78
2023/03/08 04:50:11;;;;;;;;;14.33;11.00;;;;;8.33;100.00;98771.19;5079089;28;50064;-78
2023/03/08 04:52:36;;;;;;;;;10.00;10.00;;;;;9.40;100.00;98758.47;5079126;27;45424;-77
2023/03/08 04:55:02;;;;;;;;;10.33;7.00;;;;;9.47;100.00;98764.56;5077622;28;60281;-77
2023/03/08 04:57:27;;;;;;;;;10.00;10.00;;;;;9.57;100.00;98753.44;5077499;27;45487;-77
2023/03/08 04:59:52;;;;;;;;;8.33;7.67;;;;;9.56;100.00;98746.53;5066049;28;45225;-78
2023/03/08 05:02:18;;;;;;;;;11.33;9.67;;;;;9.58;100.00;98736.50;5079280;28;45407;-77
2023/03/08 05:04:43;;;;;;;;;11.00;9.33;;;;;8.53;100.00;98739.34;5079001;27;45897;-77
2023/03/08 05:07:08;;;;;;;;;7.33;5.33;;;;;8.48;100.00;98767.47;5079171;27;45568;-76
2023/03/08 05:09:34;;;;;;;;;11.33;10.33;;;;;8.36;100.00;98746.97;5079334;27;45295;-77
2023/03/08 05:11:59;;;;;;;;;8.67;8.33;;;;;8.31;100.00;98734.34;5078935;27;45313;-77
2023/03/08 05:14:25;;;;;;;;;10.00;9.00;;;;;8.39;100.00;98758.97;5077952;28;47232;-77
2023/03/08 05:16:54;;;;;;;;;5.67;5.67;;;;;8.36;100.00;98740.84;5078917;27;45837;-77
2023/03/08 05:19:19;;;;;;;;;6.00;6.00;;;;;8.39;100.00;98756.31;5077672;28;45344;-76
2023/03/08 05:21:44;;;;;;;;;9.00;6.33;;;;;8.33;100.00;98742.09;5093881;27;54993;-78
2023/03/08 05:24:10;;;;;;;;;5.33;4.33;;;;;8.35;100.00;98750.59;5079043;28;45305;-77
2023/03/08 05:26:35;;;;;;;;;8.00;8.00;;;;;8.42;100.00;98732.06;5078450;28;52602;-77
2023/03/08 05:29:02;;;;;;;;;7.00;6.00;;;;;8.43;100.00;98704.56;5077534;28;45241;-77
2023/03/08 05:31:27;;;;;;;;;8.33;8.33;;;;;8.45;100.00;98727.16;5077476;27;46056;-79
2023/03/08 05:33:53;;;;;;;;;7.33;7.33;;;;;8.46;100.00;98712.91;5077214;28;46259;-77
2023/03/08 05:36:18;;;;;;;;;6.00;6.00;;;;;8.52;100.00;98715.72;5063150;28;45692;-79
2023/03/08 05:38:44;;;;;;;;;8.33;6.00;;;;;8.44;100.00;98690.34;5070551;28;45330;-76
2023/03/08 05:41:15;;;;;;;;;6.67;6.67;;;;;8.54;100.00;98719.03;5063631;28;45430;-77
2023/03/08 05:43:40;;;;;;;;;9.33;7.00;;;;;8.55;100.00;98721.47;5079268;27;47077;-77
2023/03/08 05:46:13;;;;;;;;;9.33;6.00;;;;;8.52;100.00;98691.91;5078624;27;45141;-76
2023/03/08 05:48:39;;;;;;;;;5.00;5.00;;;;;8.52;100.00;98702.50;5079205;27;45134;-75
2023/03/08 05:51:11;;;;;;;;;7.00;7.00;;;;;8.59;100.00;98701.47;5078203;27;45554;-75
2023/03/08 05:53:38;;;;;;;;;5.33;5.33;;;;;8.62;100.00;98689.63;5080755;27;45718;-75
2023/03/08 05:56:08;;;;;;;;;5.33;5.33;;;;;8.63;100.00;98703.69;5081524;27;45274;-75
2023/03/08 05:58:35;;;;;;;;;4.67;4.67;;;;;8.65;100.00;98693.72;5080962;28;45357;-75
2023/03/08 06:01:15;;;;;;;;;8.33;7.00;;;;;8.74;100.00;98694.28;5077146;28;46489;-76
2023/03/08 06:03:42;;;;;;;;;5.67;5.67;;;;;8.78;100.00;98703.41;5074486;28;45140;-78
2023/03/08 06:06:07;;;;;;;;;6.00;6.00;;;;;8.78;100.00;98703.41;5081578;28;45389;-77
2023/03/08 06:08:33;;;;;;;;;5.67;5.67;;;;;8.80;100.00;98707.47;5082053;27;45314;-76
2023/03/08 06:10:58;;;;;;;;;4.67;4.67;;;;;8.78;100.00;98687.53;5081643;28;45477;-76
2023/03/08 06:13:24;;;;;;;;;6.00;6.00;;;;;9.00;100.00;98706.53;5068940;27;45390;-76
2023/03/08 06:15:53;;;;;;;;;6.33;5.00;;;;;9.01;100.00;98688.81;5081228;28;45275;-78
2023/03/08 06:18:19;;;;;;;;;6.00;5.67;;;;;8.98;100.00;98703.28;5082625;27;45156;-76
2023/03/08 06:20:44;;;;;;;;;11.00;9.00;;;;;9.03;100.00;98700.00;5077073;28;52072;-77
2023/03/08 06:23:09;;;;;;;;;6.00;5.00;;;;;9.05;100.00;98704.06;5074197;28;61817;-77
2023/03/08 06:25:35;;;;;;;;;6.00;5.00;;;;;9.01;100.00;98705.50;5083130;27;45440;-76
2023/03/08 06:28:00;;;;;;;;;5.67;5.67;;;;;9.04;100.00;98702.44;5079898;28;47949;-77
2023/03/08 06:30:25;;;;;;;;;9.33;7.33;;;;;9.22;100.00;98712.31;5079599;27;45208;-76
2023/03/08 06:32:50;;;;;;;;;7.00;5.67;;;;;9.20;100.00;98714.38;5080539;28;48600;-76
2023/03/08 06:35:16;;;;;;;;;7.67;7.67;;;;;9.22;100.00;98728.22;5080997;28;45196;-75
2023/03/08 06:37:41;;;;;;;;;6.00;6.00;;;;;9.28;100.00;98731.84;5081967;28;45583;-76
2023/03/08 06:40:08;;;;;;;;;3.33;3.33;;;;;9.34;100.00;98732.84;5060230;28;57465;-75
2023/03/08 06:42:33;;;;;;;;;4.33;4.33;;;;;10.16;100.00;98733.72;5074082;28;46259;-76
2023/03/08 06:44:58;;;;;;;;;4.33;4.33;;;;;10.59;100.00;98733.88;5079736;28;45910;-76
2023/03/08 06:47:24;;;;;;;;;6.00;6.00;;;;;9.63;100.00;98725.25;5079908;28;45777;-76
2023/03/08 06:49:51;;;;;;;;;6.33;6.33;;;;;9.55;100.00;98744.09;5081012;28;45350;-77
2023/03/08 06:52:16;;;;;;;;;7.33;6.33;;;;;9.66;100.00;98738.06;5081047;28;45883;-77
2023/03/08 06:54:41;;;;;;;;;5.00;5.00;;;;;9.65;100.00;98717.88;5081122;27;45376;-76
2023/03/08 06:57:06;;;;;;;;;6.00;5.00;;;;;9.69;100.00;98719.06;5081049;28;45288;-76
2023/03/08 06:59:32;;;;;;;;;6.33;6.00;;;;;9.76;100.00;98719.00;5080482;27;49936;-76
2023/03/08 07:01:57;;;;;;;;;5.00;5.00;;;;;9.92;100.00;98704.38;5080605;28;53184;-76
2023/03/08 07:04:22;;;;;;;;;4.00;4.00;;;;;9.91;100.00;98716.00;5080260;28;51492;-75
2023/03/08 07:06:47;;;;;;;;;6.33;6.00;;;;;9.98;100.00;98711.47;5079721;27;50183;-76
2023/03/08 07:09:13;;;;;;;;;4.33;4.33;;;;;9.98;100.00;98708.81;5079496;28;52645;-76
2023/03/08 07:11:39;;;;;;;;;5.00;5.00;;;;;10.14;100.00;98714.53;5073783;28;45789;-77
2023/03/08 07:14:04;;;;;;;;;6.33;5.00;;;;;10.22;100.00;98716.91;5069727;27;45461;-77
2023/03/08 07:16:29;;;;;;;;;4.67;4.67;;;;;10.35;100.00;98720.44;5087520;28;45423;-75
2023/03/08 07:18:55;;;;;;;;;7.33;5.67;;;;;10.33;100.00;98712.69;5089292;28;45480;-75
2023/03/08 07:21:21;;;;;;;;;5.67;5.67;;;;;10.49;100.00;98713.16;5090923;28;45977;-76
2023/03/08 07:23:49;;;;;;;;;4.00;4.00;;;;;10.61;100.00;98721.19;5084499;27;45418;-75
2023/03/08 07:26:14;;;;;;;;;6.67;6.00;;;;;10.71;100.00;98725.94;5084679;28;45361;-75
2023/03/08 07:28:39;;;;;;;;;6.33;5.33;;;;;10.80;100.00;98721.94;5085513;28;56156;-76
2023/03/08 07:31:05;;;;;;;;;5.00;5.00;;;;;10.81;100.00;98698.84;5079694;28;47868;-75
2023/03/08 07:33:30;;;;;;;;;6.33;6.33;;;;;10.93;100.00;98714.84;5080273;27;45405;-77
2023/03/08 07:36:00;;;;;;;;;6.33;6.33;;;;;11.02;100.00;98715.31;5080811;27;45254;-77
2023/03/08 07:38:25;;;;;;;;;4.33;3.33;;;;;11.04;100.00;98707.94;5080476;27;45476;-77
2023/03/08 07:40:55;;;;;;;;;9.00;8.00;;;;;11.11;100.00;98706.78;5079869;28;47227;-77
2023/03/08 07:43:20;;;;;;;;;8.33;8.33;;;;;11.31;100.00;98712.84;5079996;27;45402;-76
2023/03/08 07:45:46;;;;;;;;;4.67;4.67;;;;;12.40;100.00;98709.91;5079292;28;45284;-75
2023/03/08 07:48:11;;;;;;;;;4.00;4.00;;;;;12.72;100.00;98714.00;5080330;28;50443;-77
2023/03/08 07:50:36;;;;;;;;;5.00;5.00;;;;;12.75;100.00;98700.97;5080368;27;45382;-77
2023/03/08 07:53:03;;;;;;;;;5.33;4.00;;;;;12.79;100.00;98716.50;5079378;28;45703;-77
2023/03/08 07:55:28;;;;;;;;;5.00;2.67;;;;;12.76;100.00;98717.78;5080756;27;45400;-77
2023/03/08 07:57:54;;;;;;;;;5.00;5.00;;;;;13.07;100.00;98709.50;5080146;27;45509;-78
2023/03/08 08:00:19;;;;;;;;;7.00;4.33;;;;;13.19;100.00;98699.59;5091422;27;48404;-77
2023/03/08 08:02:45;;;;;;;;;3.00;3.00;;;;;13.39;100.00;98733.00;5076645;27;45361;-78
2023/03/08 08:05:11;;;;;;;;;5.67;4.00;;;;;13.50;100.00;98720.66;5073714;28;45363;-78
2023/03/08 08:07:36;;;;;;;;;4.00;4.00;;;;;12.64;100.00;98712.50;5075718;28;45404;-78
2023/03/08 08:10:02;;;;;;;;;4.00;3.33;;;;;12.52;100.00;98722.38;5071660;28;45925;-78
2023/03/08 08:12:27;;;;;;;;;4.00;3.00;;;;;12.55;100.00;98721.91;5077243;28;45567;-79
2023/03/08 08:14:52;;;;;;;;;3.33;3.00;;;;;12.67;100.00;98730.69;5074810;28;45556;-80
2023/03/08 08:17:19;;;;;;;;;3.00;3.00;;;;;12.79;100.00;98729.81;5076080;28;45461;-79
2023/03/08 08:19:44;;;;;;;;;3.00;3.00;;;;;12.84;100.00;98732.59;5077561;28;47275;-78
2023/03/08 08:22:10;;;;;;;;;3.00;3.00;;;;;12.96;100.00;98732.53;5079325;28;45333;-79
2023/03/08 08:24:35;;;;;;;;;4.00;3.00;;;;;12.99;100.00;98732.84;5062656;27;45386;-78
2023/03/08 08:27:00;;;;;;;;;4.33;3.00;;;;;13.17;100.00;98756.91;5075736;28;45315;-78
2023/03/08 08:29:26;;;;;;;;;2.00;2.00;;;;;13.21;100.00;98748.19;5070925;28;45409;-80
2023/03/08 08:31:51;;;;;;;;;1.33;1.33;;;;;13.24;100.00;98745.03;5075096;28;45360;-79
2023/03/08 08:34:18;;;;;;;;;3.67;3.00;;;;;13.34;100.00;98747.06;5079952;27;45486;-79
2023/03/08 08:36:44;;;;;;;;;3.67;3.67;;;;;13.44;100.00;98743.72;5078145;27;45768;-78
2023/03/08 08:39:09;;;;;;;;;3.00;3.00;;;;;13.53;100.00;98756.72;5078824;28;47384;-79
2023/03/08 08:41:35;;;;;;;;;3.67;3.67;;;;;13.62;100.00;98753.38;5095405;27;45803;-78
2023/03/08 08:44:00;;;;;;;;;4.67;3.00;;;;;13.59;100.00;98742.41;5078147;28;52205;-76
2023/03/08 08:46:29;;;;;;;;;5.33;5.33;;;;;13.74;100.00;98753.31;5083161;28;45208;-76
2023/03/08 08:48:57;;;;;;;;;3.00;3.00;;;;;13.82;100.00;98756.59;5085510;28;46236;-76
2023/03/08 08:51:23;;;;;;;;;3.00;2.00;;;;;13.94;100.00;98772.53;5092803;28;45122;-76
2023/03/08 08:53:49;;;;;;;;;3.00;3.00;;;;;13.92;100.00;98764.75;5098428;27;45296;-75
2023/03/08 08:56:17;;;;;;;;;4.00;4.00;;;;;13.95;100.00;98755.47;5100449;27;44704;-76
2023/03/08 08:58:43;;;;;;;;;2.33;2.33;;;;;14.58;100.00;98752.53;5081268;28;45201;-77
2023/03/08 09:01:17;;;;;;;;;3.33;3.00;;;;;14.04;100.00;98759.34;5100581;27;45876;-77
2023/03/08 09:03:43;;;;;;;;;3.67;3.67;;;;;14.82;100.00;98762.19;5098105;28;44758;-78
2023/03/08 09:06:09;;;;;;;;;0.67;0.00;;;;;14.17;100.00;98770.72;5112303;27;45646;-77
2023/03/08 09:08:34;;;;;;;;;4.00;4.00;;;;;14.05;100.00;98785.00;5099458;28;47284;-77
2023/03/08 09:11:05;;;;;;;;;3.00;3.00;;;;;14.15;100.00;98773.63;5100828;28;45440;-77
2023/03/08 09:13:30;;;;;;;;;3.33;3.33;;;;;14.03;100.00;98776.41;5090057;28;45305;-78
2023/03/08 09:15:56;;;;;;;;;3.00;3.00;;;;;13.94;100.00;98778.69;5101009;27;46730;-77
2023/03/08 09:18:21;;;;;;;;;6.00;3.67;;;;;14.39;100.00;98784.09;5104203;27;47899;-77
2023/03/08 09:20:46;;;;;;;;;2.67;2.67;;;;;13.97;100.00;98772.88;5102806;28;45449;-77
2023/03/08 09:23:12;;;;;;;;;2.00;2.00;;;;;14.05;100.00;98770.81;5103076;28;45232;-78
2023/03/08 09:25:37;;;;;;;;;2.00;2.00;;;;;13.97;100.00;98783.53;5102785;27;47144;-77
2023/03/08 09:28:03;;;;;;;;;2.00;2.00;;;;;14.03;100.00;98780.97;5105071;27;45359;-78
2023/03/08 09:30:29;;;;;;;;;2.00;2.00;;;;;14.06;100.00;98783.13;5102746;27;45347;-78
2023/03/08 09:32:54;;;;;;;;;3.00;3.00;;;;;14.12;100.00;98777.63;5087506;27;45246;-78
2023/03/08 09:35:19;;;;;;;;;3.33;3.33;;;;;14.24;100.00;98782.84;5121047;27;47015;-77
2023/03/08 09:37:45;;;;;;;;;4.00;3.33;;;;;14.45;100.00;98787.63;5088126;28;47136;-77
2023/03/08 09:40:20;;;;;;;;;2.00;2.00;;;;;14.63;100.00;98781.19;5106157;27;45636;-78
2023/03/08 09:42:45;;;;;;;;;3.67;3.33;;;;;14.59;100.00;98791.59;5104243;28;45253;-78
2023/03/08 09:45:28;;;;;;;;;3.00;3.00;;;;;14.91;100.00;98789.28;5105489;28;45762;-77
2023/03/08 09:48:09;;;;;;;;;3.00;3.00;;;;;14.94;100.00;98786.94;5105223;28;45366;-77
2023/03/08 09:50:53;;;;;;;;;2.33;2.33;;;;;14.98;100.00;98788.03;5103984;28;45381;-78
2023/03/08 09:53:37;;;;;;;;;1.00;1.00;;;;;15.00;100.00;98796.59;5082632;28;45229;-78
2023/03/08 09:56:13;;;;;;;;;4.00;3.33;;;;;14.90;100.00;98793.81;5097468;27;44819;-78
2023/03/08 09:58:46;;;;;;;;;1.00;1.00;;;;;14.84;100.00;98795.63;5094699;28;45076;-78
2023/03/08 10:01:37;;;;;;;;;0.33;0.33;;;;;14.88;100.00;98790.59;5096670;28;44680;-77
2023/03/08 10:04:05;;;;;;;;;1.33;1.33;;;;;14.87;100.00;98791.63;5094071;27;45671;-77
2023/03/08 10:07:29;;;;;;;;;2.00;2.00;;;;;14.91;100.00;98802.66;5098914;28;45788;-77
2023/03/08 10:10:15;;;;;;;;;4.33;2.33;;;;;15.05;100.00;98789.72;4970157;28;47528;-78
2023/03/08 10:12:43;;;;;;;;;3.00;3.00;;;;;15.17;100.00;98798.38;5022476;28;45525;-76
2023/03/08 10:15:16;;;;;;;;;2.00;2.00;;;;;15.27;100.00;98782.41;5081374;28;45263;-75
2023/03/08 10:17:53;;;;;;;;;2.33;2.33;;;;;15.45;100.00;98801.88;5078166;28;45558;-75
2023/03/08 10:20:25;;;;;;;;;0.00;0.00;;;;;15.56;100.00;98810.78;5068548;28;47161;-74
2023/03/08 10:22:57;;;;;;;;;2.00;1.00;;;;;15.60;100.00;98803.06;5074259;28;46427;-75
2023/03/08 10:25:32;;;;;;;;;2.00;1.00;;;;;15.63;100.00;98827.44;5073374;28;45346;-74
2023/03/08 10:28:00;;;;;;;;;2.00;2.00;;;;;15.70;100.00;98815.72;5080219;28;45334;-75
2023/03/08 10:30:48;;;;;;;;;1.00;1.00;;;;;15.84;100.00;98808.88;5078078;28;47182;-76
2023/03/08 10:33:16;;;;;;;;;0.00;0.00;;;;;15.89;100.00;98818.78;5081069;27;45231;-78
2023/03/08 10:35:53;;;;;;;;;3.00;2.00;;;;;15.88;100.00;98815.31;5079840;28;45473;-76
2023/03/08 10:38:18;;;;;;;;;2.33;2.33;;;;;15.97;100.00;98822.91;5072712;28;46555;-79
2023/03/08 10:40:45;;;;;;;;;2.33;2.00;;;;;16.02;100.00;98814.91;5078383;28;57828;-79
2023/03/08 10:43:50;;;;;;;;;1.00;1.00;;;;;16.11;100.00;98816.06;5068719;28;45276;-78
2023/03/08 10:46:18;;;;;;;;;0.67;0.67;;;;;16.19;100.00;98814.75;5071305;28;45584;-77
2023/03/08 10:48:45;;;;;;;;;1.67;1.67;;;;;16.20;100.00;98812.88;5084317;27;45401;-78
2023/03/08 10:51:24;;;;;;;;;3.00;1.00;;;;;16.32;100.00;98820.72;5086096;27;46272;-78
2023/03/08 10:54:01;;;;;;;;;1.67;1.00;;;;;16.29;100.00;98830.09;5082457;28;45337;-78
2023/03/08 10:56:37;;;;;;;;;1.67;1.33;;;;;16.38;100.00;98817.00;5083281;28;45392;-76
2023/03/08 10:59:05;;;;;;;;;2.67;2.00;;;;;16.40;100.00;98834.44;5080994;27;45305;-76
2023/03/08 11:01:34;;;;;;;;;1.00;1.00;;;;;16.46;100.00;98837.16;5081894;27;45383;-77
2023/03/08 11:04:01;;;;;;;;;2.00;1.00;;;;;16.38;100.00;98841.13;5080820;27;45369;-75
2023/03/08 11:06:26;;;;;;;;;5.67;5.67;;;;;16.27;100.00;98834.88;5079695;28;45354;-74
2023/03/08 11:08:58;;;;;;;;;4.67;4.67;;;;;16.17;100.00;98846.38;5080414;27;45411;-75
2023/03/08 11:11:24;;;;;;;;;4.00;4.00;;;;;16.07;100.00;98851.66;5079382;28;46071;-76
2023/03/08 11:13:51;;;;;;;;;9.67;8.67;;;;;16.13;100.00;98855.97;5077680;27;45334;-75
2023/03/08 11:16:58;;;;;;;;;1.67;1.67;;;;;16.17;100.00;98845.53;5078193;28;45414;-74
2023/03/08 11:19:35;;;;;;;;;3.00;3.00;;;;;16.26;100.00;98852.03;5080007;28;45630;-76
2023/03/08 11:22:06;;;;;;;;;10.33;10.00;;;;;16.42;100.00;98850.25;5080418;27;46271;-75
2023/03/08 11:24:55;;;;;;;;;2.00;2.00;;;;;16.62;100.00;98840.72;5080657;28;45333;-76
2023/03/08 11:28:06;;;;;;;;;5.67;4.00;;;;;16.78;100.00;98844.25;5076147;28;45248;-75